createdAt,value
2018-04-29T00:00:17.571Z,70.30
2018-04-29T00:03:40.769Z,71.00
2018-04-29T00:07:03.977Z,70.00
2018-04-29T00:10:26.418Z,69.90
2018-04-29T00:13:48.866Z,69.80
2018-04-29T00:17:12.081Z,69.70
2018-04-29T00:20:34.522Z,69.60
2018-04-29T00:23:57.730Z,69.90
2018-04-29T00:27:20.179Z,69.90
2018-04-29T00:30:43.389Z,70.00
2018-04-29T00:34:05.830Z,70.00
2018-04-29T00:37:28.269Z,70.00
2018-04-29T00:40:51.482Z,70.20
2018-04-29T00:44:13.913Z,70.20
2018-04-29T00:47:36.353Z,70.50
2018-04-29T00:50:58.797Z,70.80
2018-04-29T00:54:21.237Z,71.00
2018-04-29T00:57:43.682Z,71.00
2018-04-29T01:01:06.894Z,71.20
2018-04-29T01:04:29.331Z,71.10
2018-04-29T01:07:52.534Z,71.40
2018-04-29T01:11:14.997Z,71.40
2018-04-29T01:14:37.506Z,71.40
2018-04-29T01:17:59.954Z,71.40
2018-04-29T01:21:22.394Z,72.10
2018-04-29T01:24:44.833Z,72.90
2018-04-29T01:28:08.057Z,74.10
2018-04-29T01:31:30.499Z,74.00
2018-04-29T01:34:52.933Z,74.00
2018-04-29T01:38:15.385Z,73.90
2018-04-29T01:41:37.825Z,73.60
2018-04-29T01:45:00.273Z,73.10
2018-04-29T01:48:22.709Z,73.40
2018-04-29T01:51:45.915Z,74.20
2018-04-29T01:55:08.378Z,74.10
2018-04-29T01:58:30.847Z,74.70
2018-04-29T02:01:53.274Z,75.20
2018-04-29T02:05:15.718Z,75.40
2018-04-29T02:08:38.167Z,75.70
2018-04-29T02:12:00.605Z,75.70
2018-04-29T02:15:23.050Z,76.00
2018-04-29T02:18:46.254Z,76.20
2018-04-29T02:22:08.699Z,76.10
2018-04-29T02:25:31.914Z,76.60
2018-04-29T02:28:54.358Z,76.40
2018-04-29T02:32:16.794Z,76.80
2018-04-29T02:35:39.242Z,77.00
2018-04-29T02:39:01.696Z,77.10
2018-04-29T02:42:24.127Z,77.10
2018-04-29T02:45:46.566Z,77.50
2018-04-29T02:49:09.779Z,77.50
2018-04-29T02:52:32.227Z,77.50
2018-04-29T02:59:30.062Z,77.70
2018-04-29T03:02:52.498Z,78.10
2018-04-29T03:06:14.936Z,78.10
2018-04-29T03:09:38.138Z,78.30
2018-04-29T03:13:00.582Z,78.20
2018-04-29T03:16:23.031Z,78.30
2018-04-29T03:19:45.470Z,78.40
2018-04-29T03:23:07.909Z,78.60
2018-04-29T03:26:31.122Z,78.50
2018-04-29T03:29:53.548Z,78.30
2018-04-29T03:33:15.993Z,78.30
2018-04-29T03:36:38.441Z,78.20
2018-04-29T03:40:00.877Z,78.20
2018-04-29T03:43:23.308Z,78.30
2018-04-29T03:46:45.749Z,78.30
2018-04-29T03:50:08.185Z,79.20
2018-04-29T03:53:30.625Z,78.50
2018-04-29T04:01:01.044Z,78.40
2018-04-29T04:04:23.477Z,78.40
2018-04-29T04:07:46.699Z,78.90
2018-04-29T04:11:09.132Z,78.20
2018-04-29T04:14:32.345Z,78.30
2018-04-29T04:17:54.782Z,78.30
2018-04-29T04:21:17.983Z,78.20
2018-04-29T04:24:40.421Z,78.10
2018-04-29T04:28:03.634Z,78.30
2018-04-29T04:31:26.069Z,78.10
2018-04-29T04:34:49.279Z,78.10
2018-04-29T04:38:11.723Z,78.10
2018-04-29T04:41:34.921Z,78.30
2018-04-29T04:44:57.389Z,78.20
2018-04-29T04:48:19.833Z,78.30
2018-04-29T04:51:43.041Z,78.50
2018-04-29T04:55:05.486Z,78.40
2018-04-29T04:58:28.718Z,78.00
2018-04-29T05:01:51.153Z,77.90
2018-04-29T05:05:13.618Z,77.80
2018-04-29T05:08:36.055Z,77.90
2018-04-29T05:11:59.270Z,77.30
2018-04-29T05:15:21.705Z,77.10
2018-04-29T05:18:44.930Z,76.20
2018-04-29T05:22:07.438Z,76.10
2018-04-29T05:25:29.821Z,75.20
2018-04-29T05:28:53.029Z,73.90
2018-04-29T05:32:15.461Z,73.90
2018-04-29T05:35:38.688Z,73.00
2018-04-29T05:39:01.124Z,73.00
2018-04-29T05:42:24.321Z,70.00
2018-04-29T05:45:46.753Z,70.00
2018-04-29T05:49:09.958Z,68.30
2018-04-29T05:52:32.397Z,68.30
2018-04-29T05:55:54.837Z,67.90
2018-04-29T05:59:18.042Z,67.20
2018-04-29T06:02:40.481Z,67.30
2018-04-29T06:06:02.922Z,66.20
2018-04-29T06:09:25.366Z,65.10
2018-04-29T06:12:47.807Z,64.60
2018-04-29T06:16:11.005Z,62.60
2018-04-29T06:19:34.218Z,61.20
2018-04-29T06:22:56.658Z,61.20
2018-04-29T06:26:19.111Z,62.20
2018-04-29T06:29:41.554Z,61.20
2018-04-29T06:33:03.989Z,61.90
2018-04-29T06:36:26.429Z,61.70
2018-04-29T06:39:48.872Z,60.30
2018-04-29T06:43:12.078Z,56.30
2018-04-29T06:46:34.585Z,56.20
2018-04-29T06:49:57.025Z,56.50
2018-04-29T06:53:19.471Z,56.00
2018-04-29T06:56:41.907Z,56.60
2018-04-29T07:00:05.119Z,56.20
2018-04-29T07:03:27.562Z,56.20
2018-04-29T07:06:50.764Z,55.90
2018-04-29T07:10:13.209Z,55.90
2018-04-29T07:13:36.414Z,55.80
2018-04-29T07:16:58.854Z,55.80
2018-04-29T07:20:22.057Z,53.40
2018-04-29T07:23:44.495Z,53.40
2018-04-29T07:27:07.695Z,52.70
2018-04-29T07:30:30.137Z,52.00
2018-04-29T07:33:52.577Z,51.90
2018-04-29T07:37:15.108Z,50.90
2018-04-29T07:40:37.538Z,50.50
2018-04-29T07:44:00.754Z,50.60
2018-04-29T07:47:23.189Z,49.90
2018-04-29T07:50:46.398Z,50.40
2018-04-29T07:54:08.867Z,50.30
2018-04-29T07:57:31.301Z,49.60
2018-04-29T08:00:54.506Z,50.40
2018-04-29T08:04:16.950Z,50.40
2018-04-29T08:07:40.149Z,50.30
2018-04-29T08:11:02.590Z,50.30
2018-04-29T08:14:25.798Z,51.50
2018-04-29T08:17:48.233Z,50.70
2018-04-29T08:21:10.673Z,48.50
2018-04-29T08:24:33.109Z,48.10
2018-04-29T08:27:55.566Z,47.80
2018-04-29T08:31:18.014Z,47.00
2018-04-29T08:34:41.218Z,46.00
2018-04-29T08:38:03.661Z,46.00
2018-04-29T08:41:26.853Z,46.30
2018-04-29T08:44:49.293Z,46.30
2018-04-29T08:48:12.505Z,45.80
2018-04-29T08:51:34.941Z,45.40
2018-04-29T08:54:58.236Z,44.10
2018-04-29T08:58:20.601Z,44.10
2018-04-29T09:01:43.851Z,42.60
2018-04-29T09:05:06.247Z,42.50
2018-04-29T09:08:29.451Z,41.70
2018-04-29T09:11:51.881Z,41.70
2018-04-29T09:15:14.322Z,42.20
2018-04-29T09:18:36.769Z,42.20
2018-04-29T09:21:59.214Z,40.50
2018-04-29T09:25:21.725Z,40.30
2018-04-29T09:28:44.858Z,39.70
2018-04-29T09:32:07.297Z,39.60
2018-04-29T09:35:30.570Z,38.90
2018-04-29T09:38:52.961Z,38.80
2018-04-29T09:42:15.389Z,38.20
2018-04-29T09:45:37.834Z,39.90
2018-04-29T09:49:00.282Z,38.80
2018-04-29T09:52:22.713Z,40.10
2018-04-29T09:55:45.159Z,38.00
2018-04-29T09:59:08.375Z,36.50
2018-04-29T10:02:31.770Z,36.20
2018-04-29T10:05:54.210Z,36.60
2018-04-29T10:09:17.418Z,36.50
2018-04-29T10:12:39.858Z,36.50
2018-04-29T10:16:02.301Z,36.60
2018-04-29T10:19:24.742Z,35.10
2018-04-29T10:22:47.175Z,36.60
2018-04-29T10:26:09.621Z,36.40
2018-04-29T10:29:32.061Z,35.20
2018-04-29T10:32:54.533Z,35.50
2018-04-29T10:36:16.954Z,36.90
2018-04-29T10:39:40.153Z,36.30
2018-04-29T10:43:02.603Z,36.30
2018-04-29T10:46:25.043Z,37.20
2018-04-29T10:49:47.487Z,36.10
2018-04-29T10:53:10.697Z,35.40
2018-04-29T10:56:33.135Z,35.40
2018-04-29T10:59:56.439Z,36.70
2018-04-29T11:03:18.868Z,36.70
2018-04-29T11:06:41.350Z,35.90
2018-04-29T11:10:04.558Z,35.70
2018-04-29T11:13:27.046Z,35.70
2018-04-29T11:16:49.481Z,37.60
2018-04-29T11:20:11.922Z,36.30
2018-04-29T11:23:35.120Z,35.90
2018-04-29T11:26:57.565Z,35.80
2018-04-29T11:30:20.776Z,33.70
2018-04-29T11:33:43.201Z,33.60
2018-04-29T11:37:06.415Z,33.10
2018-04-29T11:40:28.932Z,32.20
2018-04-29T11:43:52.062Z,32.60
2018-04-29T11:47:14.537Z,32.50
2018-04-29T11:50:36.977Z,31.80
2018-04-29T11:54:00.246Z,31.50
2018-04-29T11:57:22.617Z,31.40
2018-04-29T12:00:45.831Z,30.00
2018-04-29T12:04:08.289Z,30.00
2018-04-29T12:07:30.729Z,30.90
2018-04-29T12:10:53.937Z,30.70
2018-04-29T12:14:16.381Z,30.70
2018-04-29T12:17:39.585Z,29.60
2018-04-29T12:21:02.033Z,29.50
2018-04-29T12:24:25.234Z,29.90
2018-04-29T12:27:47.682Z,29.90
2018-04-29T12:31:10.889Z,27.70
2018-04-29T12:34:33.349Z,27.70
2018-04-29T12:37:55.779Z,28.80
2018-04-29T12:41:18.219Z,29.30
2018-04-29T12:44:40.649Z,28.40
2018-04-29T12:48:03.093Z,28.10
2018-04-29T12:51:25.529Z,27.30
2018-04-29T12:54:47.977Z,27.50
2018-04-29T12:58:10.420Z,27.80
2018-04-29T13:01:32.862Z,27.70
2018-04-29T13:04:55.310Z,28.10
2018-04-29T13:08:18.513Z,28.60
2018-04-29T13:11:40.957Z,28.50
2018-04-29T13:15:04.169Z,27.90
2018-04-29T13:18:26.601Z,27.80
2018-04-29T13:21:49.862Z,27.40
2018-04-29T13:25:12.249Z,27.40
2018-04-29T13:28:35.448Z,29.10
2018-04-29T13:31:57.889Z,29.10
2018-04-29T13:35:21.092Z,28.70
2018-04-29T13:38:43.530Z,28.60
2018-04-29T13:42:06.053Z,28.20
2018-04-29T13:45:28.431Z,29.30
2018-04-29T13:48:50.869Z,30.40
2018-04-29T13:52:13.342Z,30.60
2018-04-29T13:55:35.758Z,30.60
2018-04-29T13:58:58.961Z,30.80
2018-04-29T14:02:22.169Z,29.40
2018-04-29T14:05:44.624Z,29.40
2018-04-29T14:09:07.060Z,30.00
2018-04-29T14:12:30.348Z,30.10
2018-04-29T14:15:52.722Z,30.00
2018-04-29T14:19:15.160Z,30.50
2018-04-29T14:22:37.597Z,30.90
2018-04-29T14:26:00.033Z,30.30
2018-04-29T14:29:22.473Z,31.50
2018-04-29T14:32:45.685Z,30.20
2018-04-29T14:36:08.129Z,30.30
2018-04-29T14:39:30.566Z,31.30
2018-04-29T14:42:53.010Z,32.20
2018-04-29T14:46:15.465Z,32.90
2018-04-29T14:49:38.005Z,32.40
2018-04-29T14:53:00.350Z,33.20
2018-04-29T14:56:23.562Z,33.50
2018-04-29T14:59:46.001Z,33.50
2018-04-29T15:03:08.437Z,33.40
2018-04-29T15:06:30.884Z,33.30
2018-04-29T15:09:53.380Z,33.40
2018-04-29T15:13:15.761Z,34.80
2018-04-29T15:16:38.201Z,34.00
2018-04-29T15:20:01.409Z,36.20
2018-04-29T15:23:23.845Z,36.00
2018-04-29T15:26:46.294Z,35.80
2018-04-29T15:30:08.725Z,36.40
2018-04-29T15:33:31.169Z,35.20
2018-04-29T15:36:54.671Z,35.00
2018-04-29T15:40:17.338Z,34.80
2018-04-29T15:43:39.869Z,35.50
2018-04-29T15:47:03.190Z,35.70
2018-04-29T15:50:25.625Z,35.70
2018-04-29T15:53:48.841Z,36.30
2018-04-29T15:57:11.284Z,36.20
2018-04-29T16:00:34.481Z,36.30
2018-04-29T16:03:56.949Z,36.30
2018-04-29T16:07:19.385Z,35.90
2018-04-29T16:10:42.590Z,36.30
2018-04-29T16:14:05.026Z,36.20
2018-04-29T16:17:28.234Z,37.60
2018-04-29T16:20:50.680Z,37.20
2018-04-29T16:24:13.882Z,38.70
2018-04-29T16:27:36.321Z,38.10
2018-04-29T16:30:59.531Z,39.70
2018-04-29T16:34:22.003Z,38.90
2018-04-29T16:37:44.446Z,39.00
2018-04-29T16:41:07.653Z,38.60
2018-04-29T16:44:30.090Z,38.60
2018-04-29T16:47:53.358Z,39.10
2018-04-29T16:51:15.818Z,39.00
2018-04-29T16:54:38.271Z,39.10
2018-04-29T16:58:00.735Z,38.90
2018-04-29T17:01:23.984Z,33.30
2018-04-29T17:04:47.154Z,30.90
2018-04-29T17:08:09.593Z,30.90
2018-04-29T17:11:32.806Z,30.80
2018-04-29T17:14:55.244Z,30.70
2018-04-29T17:18:18.458Z,30.00
2018-04-29T17:21:40.897Z,29.90
2018-04-29T17:25:04.098Z,29.80
2018-04-29T17:28:26.546Z,29.80
2018-04-29T17:31:49.753Z,29.50
2018-04-29T17:35:12.196Z,29.40
2018-04-29T17:38:35.397Z,30.00
2018-04-29T17:41:57.837Z,30.00
2018-04-29T17:45:21.041Z,30.00
2018-04-29T17:48:43.478Z,30.00
2018-04-29T17:52:06.686Z,29.80
2018-04-29T17:55:29.126Z,29.70
2018-04-29T17:58:52.333Z,29.40
2018-04-29T18:02:14.776Z,29.20
2018-04-29T18:05:37.979Z,29.60
2018-04-29T18:09:00.417Z,29.60
2018-04-29T18:12:22.865Z,30.00
2018-04-29T18:15:45.659Z,29.90
2018-04-29T18:19:08.370Z,29.90
2018-04-29T18:22:31.122Z,29.90
2018-04-29T18:25:53.743Z,30.00
2018-04-29T18:29:16.206Z,29.80
2018-04-29T18:32:38.654Z,30.00
2018-04-29T18:36:01.093Z,30.10
2018-04-29T18:39:23.531Z,30.20
2018-04-29T18:42:46.737Z,30.40
2018-04-29T18:46:09.187Z,30.20
2018-04-29T18:49:32.412Z,30.80
2018-04-29T18:52:54.852Z,30.70
2018-04-29T18:56:17.361Z,30.70
2018-04-29T18:59:39.723Z,30.70
2018-04-29T19:03:02.177Z,30.90
2018-04-29T19:06:24.610Z,31.80
2018-04-29T19:09:47.055Z,31.50
2018-04-29T19:13:10.265Z,31.50
2018-04-29T19:16:32.701Z,31.30
2018-04-29T19:19:55.910Z,32.00
2018-04-29T19:23:18.353Z,31.80
2018-04-29T19:26:41.554Z,31.90
2018-04-29T19:30:03.996Z,31.80
2018-04-29T19:33:27.239Z,31.90
2018-04-29T19:36:49.670Z,31.80
2018-04-29T19:40:12.110Z,31.90
2018-04-29T19:43:35.318Z,32.30
2018-04-29T19:46:57.754Z,32.30
2018-04-29T19:50:20.953Z,32.70
2018-04-29T19:53:43.418Z,32.60
2018-04-29T19:57:05.854Z,32.70
2018-04-29T20:00:28.298Z,32.80
2018-04-29T20:03:51.511Z,33.10
2018-04-29T20:07:13.942Z,33.10
2018-04-29T20:10:36.385Z,33.30
2018-04-29T20:13:58.821Z,33.20
2018-04-29T20:17:22.026Z,33.80
2018-04-29T20:20:44.463Z,33.70
2018-04-29T20:24:07.667Z,33.90
2018-04-29T20:27:30.115Z,33.70
2018-04-29T20:30:53.325Z,34.00
2018-04-29T20:34:15.774Z,34.00
2018-04-29T20:37:38.225Z,34.20
2018-04-29T20:41:00.641Z,34.30
2018-04-29T20:44:23.091Z,34.50
2018-04-29T20:47:45.544Z,34.70
2018-04-29T20:51:07.986Z,34.80
2018-04-29T20:54:31.201Z,35.00
2018-04-29T20:57:53.638Z,35.60
2018-04-29T21:01:16.069Z,35.10
2018-04-29T21:04:38.513Z,35.40
2018-04-29T21:08:00.963Z,35.30
2018-04-29T21:11:23.401Z,35.40
2018-04-29T21:14:45.842Z,35.60
2018-04-29T21:18:09.163Z,35.40
2018-04-29T21:21:31.585Z,35.40
2018-04-29T21:24:54.029Z,35.70
2018-04-29T21:28:16.478Z,35.60
2018-04-29T21:31:38.924Z,35.60
2018-04-29T21:35:01.355Z,35.70
2018-04-29T21:38:24.570Z,35.50
2018-04-29T21:41:47.017Z,35.50
2018-04-29T21:45:10.217Z,35.60
2018-04-29T21:48:32.657Z,35.50
2018-04-29T21:51:55.862Z,36.20
2018-04-29T21:55:18.312Z,36.10
2018-04-29T21:58:41.513Z,36.80
2018-04-29T22:02:04.874Z,36.70
2018-04-29T22:05:28.082Z,37.50
2018-04-29T22:08:50.526Z,37.40
2018-04-29T22:12:13.730Z,37.50
2018-04-29T22:15:36.172Z,37.40
2018-04-29T22:18:59.382Z,37.50
2018-04-29T22:22:21.818Z,37.40
2018-04-29T22:25:45.030Z,37.50
2018-04-29T22:29:07.477Z,37.50
2018-04-29T22:32:29.914Z,37.60
2018-04-29T22:35:52.353Z,37.50
2018-04-29T22:39:14.801Z,37.40
2018-04-29T22:42:37.229Z,37.20
2018-04-29T22:45:59.678Z,37.50
2018-04-29T22:49:22.886Z,37.80
2018-04-29T22:52:45.363Z,37.70
2018-04-29T22:56:07.789Z,37.90
2018-04-29T22:59:30.998Z,38.60
2018-04-29T23:02:53.433Z,38.50
2018-04-29T23:06:15.936Z,38.40
2018-04-29T23:09:38.370Z,38.50
2018-04-29T23:13:01.566Z,38.60
2018-04-29T23:16:24.021Z,38.60
2018-04-29T23:19:47.230Z,39.00
2018-04-29T23:23:09.666Z,38.90
2018-04-29T23:26:32.870Z,38.90
2018-04-29T23:29:55.310Z,38.90
2018-04-29T23:33:18.510Z,38.90
2018-04-29T23:36:41.716Z,38.80
2018-04-29T23:40:04.171Z,38.80
2018-04-29T23:43:26.598Z,39.00
2018-04-29T23:46:49.038Z,38.80
2018-04-29T23:50:11.481Z,38.90
2018-04-29T23:53:33.918Z,38.80
2018-04-29T23:56:56.362Z,38.80
